Time;durP1;ratioP1;P1;durP2;ratioP2;P2;SDS_P1;SDS_P2;PMS_P1;PMS_P2;Temp;Humidity;BMP_temperature;BMP_pressure;BME280_temperature;BME280_humidity;BME280_pressure;Samples;Min_cycle;Max_cycle;Signal;HPM_P1;HPM_P2
2021/11/28 00:00:39;;;;;;;9.98;7.00;;;16.40;68.60;;;;;;10568603;28;20036;-54
2021/11/28 00:05:41;;;;;;;9.93;6.22;;;16.30;68.60;;;;;;10582112;28;20367;-52
2021/11/28 00:15:42;;;;;;;8.55;5.55;;;16.30;68.60;;;;;;10582069;28;20039;-54
2021/11/28 00:20:43;;;;;;;8.80;5.53;;;16.30;68.60;;;;;;10563516;28;20461;-54
2021/11/28 00:25:45;;;;;;;8.82;5.57;;;16.30;68.70;;;;;;10546623;28;20364;-54
2021/11/28 00:30:46;;;;;;;9.18;6.63;;;16.20;68.60;;;;;;10581290;28;20102;-54
2021/11/28 00:35:47;;;;;;;8.55;5.43;;;16.20;68.60;;;;;;10562619;28;20084;-53
2021/11/28 00:40:48;;;;;;;7.28;5.30;;;16.20;68.50;;;;;;10501574;28;1060220;-54
2021/11/28 00:45:49;;;;;;;7.82;5.68;;;16.20;68.60;;;;;;10541013;28;20079;-53
2021/11/28 00:51:00;;;;;;;7.88;5.45;;;16.20;68.60;;;;;;10539456;28;20067;-56
2021/11/28 00:56:01;;;;;;;8.68;5.32;;;16.10;68.50;;;;;;10540467;28;20028;-54
2021/11/28 01:01:02;;;;;;;6.60;4.88;;;16.10;68.50;;;;;;10538243;28;20039;-54
2021/11/28 01:06:03;;;;;;;7.35;5.35;;;16.10;68.50;;;;;;10538836;28;20024;-54
2021/11/28 01:11:04;;;;;;;8.77;5.50;;;16.10;68.50;;;;;;10539984;28;20430;-54
2021/11/28 01:16:04;;;;;;;8.55;5.30;;;16.10;68.50;;;;;;10537897;28;20032;-52
2021/11/28 01:21:06;;;;;;;9.60;5.60;;;16.10;68.50;;;;;;10539511;28;20032;-54
2021/11/28 01:26:07;;;;;;;6.75;5.28;;;16.10;69.10;;;;;;10539264;28;20024;-54
2021/11/28 01:31:08;;;;;;;7.47;4.65;;;16.00;68.50;;;;;;10537880;28;20028;-54
2021/11/28 01:36:08;;;;;;;6.25;4.35;;;16.00;68.50;;;;;;10537526;28;20024;-53
2021/11/28 01:41:09;;;;;;;7.78;5.00;;;16.00;68.50;;;;;;10537072;28;20127;-54
2021/11/28 01:46:10;;;;;;;7.28;4.97;;;15.90;68.40;;;;;;10538625;28;20028;-54
2021/11/28 01:51:11;;;;;;;5.07;4.40;;;15.90;68.50;;;;;;10538413;28;20036;-54
2021/11/28 01:56:12;;;;;;;9.15;5.57;;;16.00;68.50;;;;;;10538419;28;20036;-53
2021/11/28 02:01:17;;;;;;;5.70;4.15;;;15.90;68.50;;;;;;10537784;28;20480;-56
2021/11/28 02:06:20;;;;;;;6.93;4.30;;;16.00;68.50;;;;;;10537293;28;20385;-54
2021/11/28 02:11:21;;;;;;;6.68;4.65;;;15.90;68.50;;;;;;10537813;28;20085;-54
2021/11/28 02:16:22;;;;;;;6.82;4.18;;;15.90;68.50;;;;;;10537691;28;20538;-54
2021/11/28 02:21:23;;;;;;;6.65;4.88;;;15.90;68.60;;;;;;10537474;28;20040;-54
2021/11/28 02:26:25;;;;;;;6.72;4.15;;;15.90;68.70;;;;;;10524856;28;20023;-54
2021/11/28 02:31:26;;;;;;;7.63;4.70;;;15.90;68.40;;;;;;10537518;28;20059;-54
2021/11/28 02:36:27;;;;;;;5.80;3.70;;;15.90;68.50;;;;;;10552987;28;20525;-54
2021/11/28 02:41:27;;;;;;;5.18;4.10;;;15.90;68.60;;;;;;10535823;28;20080;-54
2021/11/28 02:46:28;;;;;;;5.53;3.70;;;15.80;68.50;;;;;;10537350;28;20028;-53
2021/11/28 02:51:34;;;;;;;4.85;3.83;;;15.80;68.50;;;;;;10536919;28;20089;-54
2021/11/28 02:56:35;;;;;;;6.97;3.72;;;15.80;68.50;;;;;;10536243;28;20066;-53
2021/11/28 03:01:36;;;;;;;6.07;4.03;;;15.80;68.50;;;;;;10548324;28;20059;-54
2021/11/28 03:06:37;;;;;;;5.03;3.95;;;15.80;68.50;;;;;;10536818;28;20027;-54
2021/11/28 03:11:38;;;;;;;7.03;4.15;;;15.70;68.40;;;;;;10536484;28;20111;-53
2021/11/28 03:16:39;;;;;;;6.03;3.58;;;15.70;68.40;;;;;;10536338;28;20107;-54
2021/11/28 03:21:41;;;;;;;5.18;3.33;;;15.70;68.40;;;;;;10535344;28;20032;-54
2021/11/28 03:26:44;;;;;;;5.35;3.72;;;15.70;68.40;;;;;;10541303;28;20028;-54
2021/11/28 03:31:52;;;;;;;5.07;3.67;;;15.70;68.40;;;;;;10542729;28;20035;-54
2021/11/28 03:36:57;;;;;;;6.30;4.13;;;15.70;68.40;;;;;;10542451;28;20372;-53
2021/11/28 03:42:05;;;;;;;5.70;3.53;;;15.70;68.40;;;;;;10582488;28;20059;-54
2021/11/28 03:47:06;;;;;;;5.85;3.38;;;15.70;68.50;;;;;;10567695;28;20051;-54
2021/11/28 03:52:06;;;;;;;6.68;3.30;;;15.60;68.50;;;;;;10585351;28;20055;-54
2021/11/28 03:57:07;;;;;;;5.15;3.88;;;15.70;68.50;;;;;;10583714;28;20024;-54
2021/11/28 04:02:08;;;;;;;4.25;3.25;;;15.70;68.40;;;;;;10584754;28;20495;-51
2021/11/28 04:07:09;;;;;;;6.40;4.60;;;15.70;68.50;;;;;;10584646;28;20101;-54
2021/11/28 04:12:11;;;;;;;4.45;3.40;;;15.70;68.50;;;;;;10584552;28;20372;-54
2021/11/28 04:17:12;;;;;;;4.90;4.20;;;15.60;68.40;;;;;;10566157;28;20479;-54
2021/11/28 04:22:13;;;;;;;6.28;3.75;;;15.70;68.40;;;;;;10583554;28;20070;-54
2021/11/28 04:27:15;;;;;;;4.70;2.90;;;15.70;68.30;;;;;;10565759;28;20401;-54
2021/11/28 04:32:16;;;;;;;7.35;3.58;;;15.70;68.30;;;;;;10565361;28;20465;-54
2021/11/28 04:37:17;;;;;;;5.30;3.33;;;15.70;68.30;;;;;;10564049;28;20035;-54
2021/11/28 04:42:18;;;;;;;4.45;2.75;;;15.70;68.20;;;;;;10564732;28;20415;-54
2021/11/28 04:47:19;;;;;;;4.70;3.33;;;15.80;68.00;;;;;;10582440;28;20031;-54
2021/11/28 04:52:20;;;;;;;5.05;3.40;;;15.80;68.00;;;;;;10564585;28;20024;-54
2021/11/28 04:57:21;;;;;;;4.60;3.22;;;15.80;68.00;;;;;;10568975;28;20388;-56
2021/11/28 05:02:21;;;;;;;4.82;3.15;;;15.80;67.90;;;;;;10582372;28;20019;-54
2021/11/28 05:07:22;;;;;;;4.63;3.15;;;15.80;67.70;;;;;;10582211;28;20035;-53
2021/11/28 05:12:24;;;;;;;3.90;3.25;;;15.80;67.60;;;;;;10580652;28;20501;-54
2021/11/28 05:17:24;;;;;;;4.45;3.05;;;15.80;67.60;;;;;;10581845;28;20036;-54
2021/11/28 05:22:26;;;;;;;4.85;3.20;;;15.90;67.50;;;;;;10581426;28;20031;-54
2021/11/28 05:27:27;;;;;;;4.00;2.65;;;15.90;67.50;;;;;;10581572;28;20035;-54
2021/11/28 05:32:27;;;;;;;4.00;2.80;;;15.90;67.50;;;;;;10563268;28;20498;-54
2021/11/28 05:37:28;;;;;;;4.57;3.63;;;15.80;67.60;;;;;;10581007;28;20035;-54
2021/11/28 05:42:29;;;;;;;4.15;2.92;;;15.80;67.60;;;;;;10579778;28;20028;-53
2021/11/28 05:47:31;;;;;;;4.20;2.65;;;15.90;67.20;;;;;;10561162;28;20479;-53
2021/11/28 05:52:32;;;;;;;3.92;3.00;;;16.10;66.70;;;;;;10579689;28;20140;-54
2021/11/28 05:57:35;;;;;;;3.80;3.08;;;16.30;66.10;;;;;;10580413;28;20035;-54
2021/11/28 06:02:36;;;;;;;4.10;2.75;;;16.40;65.70;;;;;;10579855;28;20024;-53
2021/11/28 06:07:38;;;;;;;3.67;2.42;;;16.60;65.30;;;;;;10562024;28;20102;-56
2021/11/28 06:12:39;;;;;;;2.90;2.10;;;16.60;65.10;;;;;;10561849;28;20034;-55
2021/11/28 06:17:40;;;;;;;3.65;2.45;;;16.70;64.90;;;;;;10579419;28;20043;-54
2021/11/28 06:22:41;;;;;;;4.03;2.22;;;16.70;64.70;;;;;;10578995;28;20040;-56
2021/11/28 06:27:42;;;;;;;4.25;2.75;;;16.80;64.70;;;;;;10560409;28;20409;-56
2021/11/28 06:32:43;;;;;;;3.42;2.03;;;16.80;64.50;;;;;;10548712;28;20063;-56
2021/11/28 06:37:46;;;;;;;4.80;2.38;;;16.80;64.60;;;;;;10532565;28;20046;-55
2021/11/28 06:42:47;;;;;;;3.63;2.38;;;16.90;64.30;;;;;;10579805;28;20036;-54
2021/11/28 06:47:48;;;;;;;4.40;2.72;;;17.10;65.70;;;;;;10578713;28;20028;-54
2021/11/28 06:52:48;;;;;;;8.23;4.10;;;17.30;65.50;;;;;;10560731;28;20035;-55
2021/11/28 06:57:49;;;;;;;8.70;4.43;;;17.50;64.70;;;;;;10576880;28;20015;-55
2021/11/28 07:02:50;;;;;;;8.45;4.70;;;17.60;65.20;;;;;;10568545;28;20494;-53
2021/11/28 07:07:51;;;;;;;9.75;4.97;;;17.70;65.60;;;;;;10568889;28;20428;-52
2021/11/28 07:12:52;;;;;;;965.50;790.78;;;17.50;66.20;;;;;;10568567;28;20050;-54
2021/11/28 07:17:53;;;;;;;91.55;78.70;;;17.80;65.80;;;;;;10586286;28;20028;-52
2021/11/28 07:22:53;;;;;;;81.13;65.72;;;17.70;65.30;;;;;;10565088;28;20039;-55
2021/11/28 07:27:56;;;;;;;73.93;53.40;;;17.40;64.30;;;;;;10563408;28;20034;-54
2021/11/28 07:32:58;;;;;;;64.20;46.97;;;17.30;63.60;;;;;;10582125;28;20503;-53
2021/11/28 07:37:59;;;;;;;50.63;41.08;;;17.20;63.00;;;;;;10584233;28;20039;-54
2021/11/28 07:43:00;;;;;;;49.65;33.38;;;17.20;62.20;;;;;;10584249;28;20032;-54
2021/11/28 07:48:01;;;;;;;36.78;26.77;;;17.20;61.70;;;;;;10567200;28;20032;-54
2021/11/28 07:53:03;;;;;;;34.72;25.13;;;17.30;61.20;;;;;;10567047;28;20096;-54
2021/11/28 07:58:04;;;;;;;36.85;24.17;;;17.50;61.10;;;;;;10584815;28;20032;-52
2021/11/28 08:03:05;;;;;;;34.05;24.00;;;17.60;61.20;;;;;;10584608;28;20514;-53
2021/11/28 08:08:06;;;;;;;27.15;21.77;;;17.70;61.10;;;;;;10563999;28;20035;-53
2021/11/28 08:13:07;;;;;;;29.60;19.80;;;17.70;61.40;;;;;;10581996;28;20030;-52
2021/11/28 08:18:08;;;;;;;28.27;19.63;;;17.70;61.10;;;;;;10563543;28;20028;-52
2021/11/28 08:23:09;;;;;;;25.58;17.13;;;17.70;61.20;;;;;;10546153;28;20524;-53
2021/11/28 08:28:10;;;;;;;23.00;17.80;;;17.70;61.10;;;;;;10560940;28;20039;-54
2021/11/28 08:33:11;;;;;;;23.88;15.48;;;17.70;60.40;;;;;;10550702;28;20424;-52
2021/11/28 08:38:11;;;;;;;20.23;14.50;;;17.70;60.50;;;;;;10580766;28;20048;-53
2021/11/28 08:43:12;;;;;;;35.60;16.63;;;17.70;60.30;;;;;;10562724;28;20030;-53
2021/11/28 08:48:13;;;;;;;20.02;13.93;;;17.70;60.20;;;;;;10579889;28;20363;-53
2021/11/28 08:53:14;;;;;;;18.48;13.35;;;17.70;60.10;;;;;;10561557;28;20061;-52
2021/11/28 08:58:16;;;;;;;24.77;13.82;;;17.70;60.00;;;;;;10561644;28;20088;-53
2021/11/28 09:03:17;;;;;;;16.45;12.50;;;17.80;60.10;;;;;;10561726;28;20022;-53
2021/11/28 09:08:18;;;;;;;14.48;11.35;;;17.80;59.90;;;;;;10581502;28;20031;-54
2021/11/28 09:13:19;;;;;;;14.50;11.05;;;17.80;59.90;;;;;;10563484;28;20028;-54
2021/11/28 09:18:24;;;;;;;14.95;11.50;;;17.90;59.80;;;;;;10563582;28;20035;-53
2021/11/28 09:28:45;;;;;;;17.73;11.45;;;17.90;59.50;;;;;;10569104;28;20027;-55
2021/11/28 09:33:46;;;;;;;14.32;9.70;;;17.80;59.90;;;;;;10547704;28;20027;-56
2021/11/28 09:38:47;;;;;;;16.88;9.50;;;18.00;60.30;;;;;;10558737;28;20118;-55
2021/11/28 09:43:55;;;;;;;18.90;9.27;;;18.00;60.80;;;;;;10561845;28;20043;-57
2021/11/28 09:49:01;;;;;;;19.80;8.90;;;18.10;60.90;;;;;;10562182;28;20035;-56
2021/11/28 09:54:06;;;;;;;16.83;9.52;;;18.10;60.80;;;;;;10554315;28;20031;-59
2021/11/28 09:59:09;;;;;;;14.15;8.85;;;18.10;60.70;;;;;;10555939;28;20035;-57
2021/11/28 10:04:10;;;;;;;13.18;7.00;;;18.20;60.70;;;;;;10561333;28;20027;-56
2021/11/28 10:09:13;;;;;;;13.23;7.47;;;18.20;61.00;;;;;;10561697;28;20023;-59
2021/11/28 10:14:14;;;;;;;17.67;8.35;;;18.20;61.10;;;;;;10579164;28;20086;-57
2021/11/28 10:19:15;;;;;;;18.02;7.93;;;18.30;60.60;;;;;;10543815;28;20114;-55
2021/11/28 10:24:18;;;;;;;12.73;7.13;;;18.30;61.30;;;;;;10560505;28;20036;-54
2021/11/28 10:29:20;;;;;;;13.65;6.90;;;18.10;60.60;;;;;;10569455;28;20368;-55
2021/11/28 10:34:26;;;;;;;19.23;6.80;;;18.10;60.60;;;;;;10560973;28;20028;-54
2021/11/28 10:39:27;;;;;;;13.57;7.40;;;18.20;60.30;;;;;;10566697;28;20051;-56
2021/11/28 10:44:28;;;;;;;9.05;5.43;;;18.10;60.20;;;;;;10567265;28;20055;-55
2021/11/28 10:49:29;;;;;;;12.35;6.22;;;18.20;60.10;;;;;;10567349;28;20051;-55
2021/11/28 10:54:36;;;;;;;9.23;6.10;;;18.20;60.30;;;;;;10566767;28;20076;-56
2021/11/28 10:59:40;;;;;;;10.10;5.75;;;18.20;60.00;;;;;;10571599;28;20032;-56
2021/11/28 11:04:41;;;;;;;12.65;5.22;;;18.20;60.00;;;;;;10568928;28;20035;-55
2021/11/28 11:09:45;;;;;;;9.25;5.90;;;18.20;60.10;;;;;;10551802;28;20441;-55
2021/11/28 11:14:52;;;;;;;7.82;4.75;;;18.20;60.00;;;;;;10568574;28;20036;-55
2021/11/28 11:19:55;;;;;;;7.82;5.18;;;18.30;60.10;;;;;;10568148;28;20039;-55
2021/11/28 11:25:00;;;;;;;10.20;5.43;;;18.30;60.10;;;;;;10585659;28;20111;-55
2021/11/28 11:30:07;;;;;;;7.10;5.05;;;18.30;60.10;;;;;;10586225;28;20383;-56
2021/11/28 11:35:19;;;;;;;9.05;5.18;;;18.30;60.10;;;;;;10567764;28;20047;-56
2021/11/28 11:40:22;;;;;;;9.77;6.03;;;18.30;59.90;;;;;;10568973;28;20058;-55
2021/11/28 11:45:29;;;;;;;7.07;4.57;;;18.30;59.90;;;;;;10566722;28;20027;-56
2021/11/28 11:50:32;;;;;;;11.00;4.13;;;18.30;59.90;;;;;;10567203;28;20093;-56
2021/11/28 11:55:42;;;;;;;5.53;3.92;;;18.30;60.00;;;;;;10585261;28;20024;-56
2021/11/28 12:01:00;;;;;;;;;;;18.30;59.90;;;;;;10585278;28;20032;-55
2021/11/28 12:06:01;;;;;;;4.78;3.35;;;18.30;60.00;;;;;;10580276;28;20002;-56
2021/11/28 12:11:11;;;;;;;7.47;4.32;;;18.40;59.80;;;;;;10565220;28;20038;-56
2021/11/28 12:16:12;;;;;;;5.93;3.60;;;18.30;59.90;;;;;;10566440;28;20024;-57
2021/11/28 12:21:36;;;;;;;7.40;4.55;;;18.30;59.80;;;;;;10583806;28;20039;-56
2021/11/28 12:26:56;;;;;;;7.15;3.25;;;18.30;59.80;;;;;;10565092;28;20445;-56
2021/11/28 12:32:26;;;;;;;5.60;3.90;;;18.30;59.90;;;;;;10555944;28;20027;-56
2021/11/28 12:37:35;;;;;;;4.30;3.38;;;18.40;59.90;;;;;;10557288;28;20036;-56
2021/11/28 12:42:41;;;;;;;5.32;3.20;;;18.30;59.80;;;;;;10565347;28;20047;-56
2021/11/28 12:47:42;;;;;;;4.53;2.63;;;18.30;59.70;;;;;;10582742;28;20068;-56
2021/11/28 12:52:50;;;;;;;5.65;3.15;;;18.30;59.70;;;;;;10582798;28;20535;-56
2021/11/28 12:58:01;;;;;;;5.05;3.05;;;18.40;59.70;;;;;;10546785;28;20067;-56
2021/11/28 13:03:08;;;;;;;4.93;2.58;;;18.30;59.70;;;;;;10574251;28;20193;-55
2021/11/28 13:08:08;;;;;;;4.53;2.50;;;18.30;59.80;;;;;;10581695;28;20023;-57
2021/11/28 13:13:24;;;;;;;5.82;2.80;;;18.30;61.10;;;;;;10582129;28;20032;-57
2021/11/28 13:18:31;;;;;;;7.07;2.15;;;18.40;61.60;;;;;;10564478;28;20463;-56
2021/11/28 13:23:40;;;;;;;8.57;2.83;;;18.40;62.30;;;;;;10581325;28;20088;-56
2021/11/28 13:28:42;;;;;;;3.97;2.33;;;18.50;62.20;;;;;;10563675;28;20027;-57
2021/11/28 13:34:01;;;;;;;5.32;2.38;;;18.50;62.20;;;;;;10563063;28;20024;-56
2021/11/28 13:39:05;;;;;;;6.17;2.60;;;18.50;62.10;;;;;;10562454;28;20103;-57
2021/11/28 13:44:16;;;;;;;12.38;3.25;;;18.50;62.60;;;;;;10579208;28;20335;-57
2021/11/28 13:49:31;;;;;;;10.13;2.78;;;18.50;62.00;;;;;;10562445;28;20556;-59
2021/11/28 13:54:40;;;;;;;17.60;3.63;;;18.50;62.40;;;;;;10536172;28;20051;-58
2021/11/28 13:59:43;;;;;;;9.65;2.45;;;18.40;63.20;;;;;;10561498;28;20028;-56
2021/11/28 14:05:05;;;;;;;14.60;3.15;;;18.50;63.10;;;;;;10578676;28;20160;-54
2021/11/28 14:10:11;;;;;;;12.63;3.28;;;18.50;62.90;;;;;;10561961;28;20508;-54
2021/11/28 14:15:26;;;;;;;15.10;3.53;;;18.50;61.90;;;;;;10578571;28;20114;-56
2021/11/28 14:20:42;;;;;;;12.23;2.80;;;18.60;62.20;;;;;;10560365;28;20375;-55
2021/11/28 14:25:45;;;;;;;10.32;2.58;;;18.60;61.70;;;;;;10579696;28;20023;-55
2021/11/28 14:30:53;;;;;;;7.07;1.63;;;18.50;61.60;;;;;;10574806;28;20032;-55
2021/11/28 14:36:13;;;;;;;5.60;2.15;;;18.40;61.20;;;;;;10575553;28;20035;-55
2021/11/28 14:41:39;;;;;;;;;;;18.50;61.40;;;;;;10560370;28;20043;-56
2021/11/28 14:46:40;;;;;;;5.72;1.80;;;18.60;61.90;;;;;;10567549;28;20350;-56
2021/11/28 14:51:59;;;;;;;8.55;1.92;;;18.70;62.30;;;;;;10561128;28;20032;-57
2021/11/28 14:57:21;;;;;;;6.28;2.00;;;18.80;62.60;;;;;;10578977;28;20107;-55
2021/11/28 15:02:33;;;;;;;5.13;1.38;;;18.80;63.00;;;;;;10540249;28;20043;-57
2021/11/28 15:07:38;;;;;;;8.68;1.45;;;18.80;63.00;;;;;;10559981;28;20035;-55
2021/11/28 15:12:41;;;;;;;5.40;1.40;;;18.90;62.90;;;;;;10578575;28;20364;-56
2021/11/28 15:17:43;;;;;;;9.77;2.03;;;18.90;62.70;;;;;;10578922;28;20184;-57
2021/11/28 15:22:50;;;;;;;9.77;1.38;;;18.90;63.10;;;;;;10585129;28;20039;-57
2021/11/28 15:27:52;;;;;;;6.43;1.40;;;18.90;62.70;;;;;;10568980;28;20483;-57
2021/11/28 15:32:53;;;;;;;7.40;1.50;;;18.90;63.10;;;;;;10568290;28;20498;-56
2021/11/28 15:37:59;;;;;;;7.43;1.50;;;18.90;63.00;;;;;;10567906;28;20031;-56
2021/11/28 15:43:05;;;;;;;7.07;1.50;;;19.00;62.60;;;;;;10565929;28;20177;-57
2021/11/28 15:48:07;;;;;;;7.30;1.40;;;19.00;62.70;;;;;;10567464;28;20038;-59
2021/11/28 15:53:09;;;;;;;14.77;1.65;;;19.00;62.70;;;;;;10566976;28;20368;-57
2021/11/28 15:58:13;;;;;;;7.80;2.20;;;19.00;63.00;;;;;;10585497;28;20043;-57
2021/11/28 16:03:13;;;;;;;12.85;1.88;;;19.00;62.90;;;;;;10566838;28;20024;-58
2021/11/28 16:08:16;;;;;;;12.65;2.88;;;18.90;63.20;;;;;;10566124;28;20020;-57
2021/11/28 16:13:17;;;;;;;12.25;2.00;;;18.90;63.10;;;;;;10566663;28;20067;-57
2021/11/28 16:18:18;;;;;;;5.00;1.75;;;18.90;63.70;;;;;;10566015;28;20032;-58
2021/11/28 16:23:20;;;;;;;11.60;2.22;;;18.80;63.00;;;;;;10582110;28;20032;-59
2021/11/28 16:28:21;;;;;;;14.48;3.03;;;18.80;63.10;;;;;;10582827;28;20059;-58
2021/11/28 16:33:24;;;;;;;13.05;3.10;;;18.80;63.50;;;;;;10541098;28;20043;-57
2021/11/28 16:38:25;;;;;;;10.77;1.80;;;18.80;63.70;;;;;;10560931;28;20034;-57
2021/11/28 16:43:26;;;;;;;17.85;2.38;;;18.70;63.90;;;;;;10554514;28;20126;-58
2021/11/28 16:48:28;;;;;;;12.77;1.88;;;18.70;64.00;;;;;;10573648;28;20107;-58
2021/11/28 16:53:29;;;;;;;5.90;2.13;;;18.70;64.10;;;;;;10559525;28;20165;-58
2021/11/28 16:58:30;;;;;;;11.68;1.83;;;18.60;64.00;;;;;;10564578;28;20111;-58
2021/11/28 17:03:32;;;;;;;12.98;2.03;;;18.70;64.10;;;;;;10552637;28;20028;-59
2021/11/28 17:08:33;;;;;;;18.60;2.60;;;18.70;64.20;;;;;;10563631;28;20035;-58
2021/11/28 17:13:34;;;;;;;14.55;3.22;;;18.80;64.00;;;;;;10545349;28;20047;-58
2021/11/28 17:18:35;;;;;;;9.80;2.60;;;18.80;63.30;;;;;;10537172;28;20111;-58
2021/11/28 17:23:36;;;;;;;12.48;5.25;;;18.70;64.30;;;;;;10541102;28;20353;-58
2021/11/28 17:28:38;;;;;;;9.27;5.38;;;18.70;66.90;;;;;;10576940;28;20024;-56
2021/11/28 17:33:39;;;;;;;47.05;43.92;;;18.60;66.00;;;;;;10563428;28;20472;-56
2021/11/28 17:38:39;;;;;;;21.13;19.55;;;18.60;65.50;;;;;;10580969;28;20393;-57
2021/11/28 17:43:40;;;;;;;13.93;9.88;;;18.50;64.80;;;;;;10542793;28;20034;-57
2021/11/28 17:48:41;;;;;;;11.10;9.98;;;18.60;64.10;;;;;;10562032;28;20085;-57
2021/11/28 17:53:42;;;;;;;16.60;7.57;;;18.60;63.70;;;;;;10557360;28;20046;-56
2021/11/28 17:58:43;;;;;;;8.75;6.05;;;18.50;62.40;;;;;;10551173;28;20034;-59
2021/11/28 18:03:44;;;;;;;8.07;5.63;;;18.40;62.20;;;;;;10562051;28;20056;-58
2021/11/28 18:08:45;;;;;;;6.95;3.83;;;18.30;61.90;;;;;;10549568;28;20110;-58
2021/11/28 18:13:46;;;;;;;9.32;4.05;;;18.30;61.60;;;;;;10561152;28;20088;-58
2021/11/28 18:18:47;;;;;;;5.28;3.97;;;18.30;61.40;;;;;;10561677;28;20091;-58
2021/11/28 18:23:47;;;;;;;3.72;2.97;;;18.30;61.00;;;;;;10579622;28;20353;-57
2021/11/28 18:28:49;;;;;;;6.72;2.90;;;18.30;60.70;;;;;;10578622;28;20031;-57
2021/11/28 18:33:49;;;;;;;4.97;2.65;;;18.40;61.30;;;;;;10565990;28;20016;-56
2021/11/28 18:38:50;;;;;;;5.80;2.90;;;18.50;61.50;;;;;;10551689;28;20028;-56
2021/11/28 18:43:53;;;;;;;3.78;2.83;;;18.50;61.60;;;;;;10535484;28;20296;-55
2021/11/28 18:48:53;;;;;;;5.32;2.65;;;18.60;62.00;;;;;;10553819;28;20080;-56
2021/11/28 18:53:56;;;;;;;3.97;2.78;;;18.60;62.20;;;;;;10564587;28;20537;-57
2021/11/28 18:58:57;;;;;;;3.80;2.67;;;18.60;62.60;;;;;;10559848;28;20116;-57
2021/11/28 19:04:03;;;;;;;4.05;2.20;;;18.50;62.70;;;;;;10580818;28;20031;-57
2021/11/28 19:09:07;;;;;;;3.17;2.38;;;18.50;62.90;;;;;;10558684;28;20407;-55
2021/11/28 19:14:08;;;;;;;4.93;2.42;;;18.50;63.10;;;;;;10567066;28;20027;-57
2021/11/28 19:19:09;;;;;;;4.20;2.00;;;18.60;63.30;;;;;;10564684;28;20100;-57
2021/11/28 19:24:10;;;;;;;4.45;2.78;;;18.60;63.50;;;;;;10585567;28;20040;-57
2021/11/28 19:29:12;;;;;;;4.63;2.72;;;18.60;63.40;;;;;;10572622;28;20475;-56
2021/11/28 19:34:13;;;;;;;3.47;2.90;;;18.60;63.50;;;;;;10565578;28;20363;-57
2021/11/28 19:39:15;;;;;;;3.28;2.60;;;18.60;63.70;;;;;;10586047;28;20044;-57
2021/11/28 19:44:19;;;;;;;8.85;3.00;;;18.60;63.90;;;;;;10567896;28;20024;-59
2021/11/28 19:49:19;;;;;;;3.72;2.28;;;18.60;64.00;;;;;;10568029;28;20051;-57
2021/11/28 19:54:20;;;;;;;6.65;3.58;;;18.60;64.30;;;;;;10562470;28;20370;-58
2021/11/28 19:59:22;;;;;;;2.72;2.53;;;18.70;64.40;;;;;;10585480;28;20045;-58
2021/11/28 20:04:23;;;;;;;3.85;2.53;;;18.70;64.10;;;;;;10585116;28;20495;-59
2021/11/28 20:09:23;;;;;;;28.63;16.58;;;18.70;64.40;;;;;;10583079;28;20051;-58
2021/11/28 20:14:24;;;;;;;26.23;14.50;;;18.60;64.30;;;;;;10585034;28;20154;-59
2021/11/28 20:19:28;;;;;;;23.40;13.68;;;18.40;64.70;;;;;;10564539;28;20027;-59
2021/11/28 20:24:30;;;;;;;23.70;13.73;;;18.30;65.00;;;;;;10552207;28;20032;-53
2021/11/28 20:29:31;;;;;;;19.08;12.60;;;18.10;65.30;;;;;;10582079;28;20115;-54
2021/11/28 20:34:32;;;;;;;19.73;11.98;;;17.90;65.50;;;;;;10564151;28;20050;-54
2021/11/28 20:39:33;;;;;;;18.48;11.60;;;17.80;65.70;;;;;;10582080;28;20051;-54
2021/11/28 20:44:33;;;;;;;19.35;12.10;;;17.70;66.00;;;;;;10581010;28;20474;-53
2021/11/28 20:49:34;;;;;;;22.35;11.10;;;17.60;66.20;;;;;;10567958;28;20024;-55
2021/11/28 20:54:35;;;;;;;18.90;11.20;;;17.40;66.30;;;;;;10581865;28;20024;-53
2021/11/28 20:59:36;;;;;;;15.68;10.27;;;17.40;66.50;;;;;;10562900;28;20024;-54
2021/11/28 21:04:36;;;;;;;17.92;10.50;;;17.30;66.40;;;;;;10580868;28;20039;-54
2021/11/28 21:09:37;;;;;;;17.38;10.95;;;17.20;66.50;;;;;;10562633;28;20483;-53
2021/11/28 21:14:40;;;;;;;16.35;9.68;;;17.20;66.50;;;;;;10581038;28;20032;-55
2021/11/28 21:19:42;;;;;;;15.52;9.23;;;17.20;66.60;;;;;;10561956;28;20028;-54
2021/11/28 21:24:43;;;;;;;12.80;8.93;;;17.10;66.70;;;;;;10580603;28;20031;-54
2021/11/28 21:29:44;;;;;;;13.80;8.27;;;17.00;66.70;;;;;;10579452;28;20027;-54
2021/11/28 21:34:45;;;;;;;16.67;9.07;;;16.90;66.70;;;;;;10555315;28;20104;-54
2021/11/28 21:39:47;;;;;;;13.20;7.60;;;16.90;66.70;;;;;;10562902;28;20097;-54
2021/11/28 21:44:48;;;;;;;12.00;7.47;;;16.90;66.80;;;;;;10581180;28;20026;-55
2021/11/28 21:49:49;;;;;;;14.07;8.10;;;16.80;66.80;;;;;;10562922;28;20030;-54
2021/11/28 21:54:50;;;;;;;12.63;8.25;;;16.80;67.00;;;;;;10580868;28;20468;-54
2021/11/28 21:59:50;;;;;;;11.10;7.82;;;16.70;66.90;;;;;;10580556;28;20023;-54
2021/11/28 22:04:51;;;;;;;13.18;7.95;;;16.70;66.90;;;;;;10562450;28;20035;-55
2021/11/28 22:09:52;;;;;;;11.35;7.70;;;16.60;66.80;;;;;;10580181;28;20471;-55
2021/11/28 22:14:53;;;;;;;13.48;6.97;;;16.60;66.90;;;;;;10561807;28;20028;-55
2021/11/28 22:19:53;;;;;;;13.13;7.53;;;16.60;66.90;;;;;;10562016;28;20474;-54
2021/11/28 22:24:55;;;;;;;9.40;5.97;;;16.50;66.80;;;;;;10544457;28;20465;-55
2021/11/28 22:29:56;;;;;;;9.15;6.35;;;16.50;66.90;;;;;;10579482;28;20028;-55
2021/11/28 22:34:57;;;;;;;11.75;7.03;;;16.40;67.00;;;;;;10579944;28;20049;-54
2021/11/28 22:39:58;;;;;;;10.52;6.65;;;16.40;67.00;;;;;;10561154;28;20044;-53
2021/11/28 22:44:59;;;;;;;9.07;6.35;;;16.40;67.00;;;;;;10579473;28;20068;-54
2021/11/28 22:50:01;;;;;;;9.95;5.90;;;16.30;67.00;;;;;;10561046;28;20023;-54
2021/11/28 22:55:04;;;;;;;10.50;5.75;;;16.30;67.10;;;;;;10579575;28;20341;-54
2021/11/28 23:00:24;;;;;;;9.50;6.72;;;16.30;67.10;;;;;;10561132;28;20132;-54
2021/11/28 23:05:26;;;;;;;8.82;5.82;;;16.20;67.10;;;;;;10564727;28;20044;-53
2021/11/28 23:10:27;;;;;;;10.30;6.95;;;16.20;67.20;;;;;;10579060;28;20080;-54
2021/11/28 23:15:28;;;;;;;9.02;5.90;;;16.20;67.10;;;;;;10579041;28;20032;-54
2021/11/28 23:20:29;;;;;;;8.73;5.82;;;16.20;67.10;;;;;;10578945;28;20028;-54
2021/11/28 23:25:30;;;;;;;9.85;5.97;;;16.10;67.10;;;;;;10577276;28;20032;-53
2021/11/28 23:30:30;;;;;;;7.32;4.78;;;16.10;67.10;;;;;;10576869;28;20027;-54
2021/11/28 23:35:31;;;;;;;6.78;4.82;;;16.10;67.10;;;;;;10558720;28;20038;-54
2021/11/28 23:40:32;;;;;;;7.07;4.68;;;16.10;67.20;;;;;;10559315;28;20052;-55
2021/11/28 23:45:33;;;;;;;8.65;5.15;;;16.00;67.10;;;;;;10566076;28;20027;-54
2021/11/28 23:50:35;;;;;;;9.77;5.10;;;16.00;67.10;;;;;;10584512;28;20024;-53
2021/11/28 23:55:36;;;;;;;7.50;4.88;;;16.00;67.10;;;;;;10583782;28;20038;-52
